La Puente, California
Current Conditions -  °F | °C
As of 12:53 PM on Saturday 20 Dec 2014 (Local Time) from KFUL Reporting Station
Broken Clouds Broken Clouds  
Wind Chill: 63°   Ceiling: 2900
Heat Index: 63°   Visibility: 10mi
Dew Point: 48°   Wind: 0mph
Humidity: 58%   Direction: NA
Pressure: 30.14"   Gusts: NA
Location:  34.02°N, 117.95°W
Report Text: KFUL 202053Z 00000KT 10SM BKN029 17/09 A3014 RMK AO2 SLP206 T01720089 56016
Loading
Personal Weather Stations






























Interactive Weather Map New forecast layout! Learn more

10-Day Weather Forecast

Advertisements
Track Severe Weather on mobile